Aviation Digital Data Service (ADDS)

Output produced by TAFs form (0644 UTC 31 August 2015)
found at http://aviationweather.gov/adds/tafs/
 
KLND 310536Z 3106/0106 21009KT P6SM FEW100 
     FM311200 VRB05KT P6SM SKC 
     FM312000 26010KT P6SM FEW110